createdAt,value
2022-09-02T00:01:49.290Z,93886.47
2022-09-02T00:06:54.120Z,93890.56
2022-09-02T00:11:57.188Z,93893.78
2022-09-02T00:17:01.132Z,93885.13
2022-09-02T00:22:03.541Z,93858.38
2022-09-02T00:27:05.627Z,93884.81
2022-09-02T00:32:07.683Z,93888.09
2022-09-02T00:37:09.651Z,93897.00
2022-09-02T00:42:13.289Z,93890.69
2022-09-02T00:47:15.685Z,93884.81
2022-09-02T00:52:26.810Z,93881.34
2022-09-02T00:57:39.852Z,93876.16
2022-09-02T01:02:42.407Z,93871.91
2022-09-02T01:07:45.079Z,93869.56
2022-09-02T01:12:47.669Z,93878.16
2022-09-02T01:17:51.132Z,93872.78
2022-09-02T01:22:54.885Z,93853.19
2022-09-02T01:28:02.538Z,93868.63
2022-09-02T01:33:04.505Z,93849.13
2022-09-02T01:38:06.677Z,93875.31
2022-09-02T01:43:19.458Z,93873.31
2022-09-02T01:48:24.310Z,93867.31
2022-09-02T01:53:28.074Z,93830.72
2022-09-02T01:58:30.618Z,93868.19
2022-09-02T02:03:32.672Z,93868.88
2022-09-02T02:08:34.684Z,93863.41
2022-09-02T02:13:37.533Z,93869.94
2022-09-02T02:18:39.843Z,93867.97
2022-09-02T02:23:42.255Z,93872.28
2022-09-02T02:28:44.526Z,93879.78
2022-09-02T02:33:47.711Z,93876.59
2022-09-02T02:38:50.657Z,93875.06
2022-09-02T02:43:52.743Z,93887.56
2022-09-02T02:48:54.874Z,93853.94
2022-09-02T02:53:58.908Z,93884.84
2022-09-02T02:59:03.623Z,93890.84
2022-09-02T03:04:07.137Z,93881.78
2022-09-02T03:09:09.196Z,93888.94
2022-09-02T03:14:13.974Z,93886.63
2022-09-02T03:19:27.916Z,93887.53
2022-09-02T03:24:29.901Z,93887.19
2022-09-02T03:29:32.362Z,93896.50
2022-09-02T03:34:34.670Z,93897.03
2022-09-02T03:39:38.650Z,93886.63
2022-09-02T03:44:41.876Z,93904.34
2022-09-02T03:49:43.918Z,93889.34
2022-09-02T03:54:47.774Z,93895.50
2022-09-02T03:59:50.298Z,93877.63
2022-09-02T04:04:52.350Z,93883.47
2022-09-02T04:09:56.452Z,93896.13
2022-09-02T04:14:58.493Z,93897.66
2022-09-02T04:20:00.785Z,93894.00
2022-09-02T04:25:03.857Z,93896.66
2022-09-02T04:30:08.534Z,93901.78
2022-09-02T04:35:13.057Z,93881.00
2022-09-02T04:40:16.109Z,93911.97
2022-09-02T04:45:18.716Z,93915.47
2022-09-02T04:50:20.933Z,93919.69
2022-09-02T04:55:34.127Z,93923.47
2022-09-02T05:00:40.106Z,93919.69
2022-09-02T05:05:45.248Z,93929.69
2022-09-02T05:10:50.520Z,93926.59
2022-09-02T05:15:53.253Z,93922.81
2022-09-02T05:20:56.105Z,93928.97
2022-09-02T05:25:58.272Z,93939.81
2022-09-02T05:31:11.035Z,93921.94
2022-09-02T05:36:17.291Z,93909.28
2022-09-02T05:41:24.876Z,93927.47
2022-09-02T05:46:30.375Z,93934.38
2022-09-02T05:51:53.436Z,93899.59
2022-09-02T05:57:04.745Z,93922.78
2022-09-02T06:02:07.667Z,93903.44
2022-09-02T06:07:09.912Z,93926.66
2022-09-02T06:12:18.935Z,93942.50
2022-09-02T06:17:21.087Z,93950.25
2022-09-02T06:22:28.011Z,93913.06
2022-09-02T06:27:31.364Z,93941.69
2022-09-02T06:32:35.824Z,93951.38
2022-09-02T06:37:42.282Z,93938.22
2022-09-02T06:42:45.666Z,93949.06
2022-09-02T06:48:02.622Z,93953.66
2022-09-02T06:53:13.046Z,93956.00
2022-09-02T06:58:15.587Z,93957.53
2022-09-02T07:03:36.909Z,93962.19
2022-09-02T07:08:40.895Z,93967.22
2022-09-02T07:13:43.260Z,93959.50
2022-09-02T07:18:45.308Z,93959.91
2022-09-02T07:23:48.518Z,93952.59
2022-09-02T07:28:50.639Z,93949.13
2022-09-02T07:33:52.626Z,93947.16
2022-09-02T07:38:55.486Z,93953.72
2022-09-02T07:43:59.818Z,93952.16
2022-09-02T07:49:09.073Z,93951.34
2022-09-02T07:54:13.274Z,93949.78
2022-09-02T07:59:16.128Z,93949.38
2022-09-02T08:04:20.368Z,93948.19
2022-09-02T08:16:20.289Z,93954.22
2022-09-02T08:21:22.919Z,93955.63
2022-09-02T08:26:28.491Z,93944.66
2022-09-02T08:31:49.691Z,93954.41
2022-09-02T08:36:56.920Z,93940.97
2022-09-02T08:42:29.605Z,93950.53
2022-09-02T08:47:33.446Z,93960.03
2022-09-02T08:53:09.223Z,93959.69
2022-09-02T08:58:15.046Z,93953.59
2022-09-02T09:03:19.790Z,93946.13
2022-09-02T09:08:51.663Z,93949.81
2022-09-02T09:14:02.789Z,93930.16
2022-09-02T09:19:14.756Z,93935.28
2022-09-02T09:24:30.953Z,93923.72
2022-09-02T09:29:34.467Z,93933.66
2022-09-02T09:35:16.756Z,93925.72
2022-09-02T09:40:28.106Z,93917.91
2022-09-02T09:45:47.426Z,93913.03
2022-09-02T09:50:55.488Z,93919.59
2022-09-02T09:56:08.171Z,93918.84
2022-09-02T10:01:34.667Z,93913.03
2022-09-02T10:06:44.600Z,93885.81
2022-09-02T10:11:57.076Z,93911.47
2022-09-02T10:17:24.759Z,93913.91
2022-09-02T10:22:59.003Z,93907.78
2022-09-02T10:28:38.451Z,93899.00
2022-09-02T10:34:06.747Z,93897.16
2022-09-02T10:39:14.562Z,93885.63
2022-09-02T10:44:34.099Z,93885.16
2022-09-02T10:49:58.373Z,93883.50
2022-09-02T10:55:21.531Z,93873.13
2022-09-02T11:00:23.776Z,93878.63
2022-09-02T11:05:42.553Z,93864.31
2022-09-02T11:10:57.167Z,93866.47
2022-09-02T11:16:07.992Z,93825.66
2022-09-02T11:21:32.701Z,93833.19
2022-09-02T11:26:57.599Z,93855.06
2022-09-02T11:32:11.153Z,93840.59
2022-09-02T11:37:29.995Z,93840.66
2022-09-02T11:42:56.351Z,93822.41
2022-09-02T11:48:42.706Z,93826.94
2022-09-02T11:53:46.287Z,93826.91
2022-09-02T11:58:51.431Z,93820.63
2022-09-02T12:09:47.084Z,93779.00
2022-09-02T12:14:54.402Z,93783.44
2022-09-02T12:19:56.417Z,93767.69
2022-09-02T12:25:02.681Z,93785.41
2022-09-02T12:30:07.841Z,93792.53
2022-09-02T12:35:13.717Z,93798.63
2022-09-02T12:40:19.289Z,93789.25
2022-09-02T12:45:29.415Z,93773.91
2022-09-02T12:50:44.229Z,93789.16
2022-09-02T12:55:56.043Z,93783.19
2022-09-02T13:01:06.586Z,93785.31
2022-09-02T13:06:18.965Z,93771.66
2022-09-02T13:11:27.062Z,93779.66
2022-09-02T13:16:40.298Z,93779.66
2022-09-02T13:22:01.692Z,93762.31
2022-09-02T13:27:40.159Z,93771.75
2022-09-02T13:32:42.532Z,93756.31
2022-09-02T13:37:45.573Z,93751.97
2022-09-02T13:42:49.703Z,93748.03
2022-09-02T13:47:56.901Z,93750.44
2022-09-02T13:58:32.365Z,93719.38
2022-09-02T14:03:34.337Z,93721.84
2022-09-02T14:08:36.526Z,93716.63
2022-09-02T14:13:41.697Z,93715.88
2022-09-02T14:19:23.262Z,93725.81
2022-09-02T14:24:27.781Z,93723.97
2022-09-02T14:29:32.306Z,93724.75
2022-09-02T14:34:41.836Z,93725.22
2022-09-02T14:40:06.616Z,93716.34
2022-09-02T14:45:11.119Z,93713.16
2022-09-02T14:50:17.690Z,93680.13
2022-09-02T14:55:47.775Z,93703.81
2022-09-02T15:00:54.017Z,93700.44
2022-09-02T15:05:55.969Z,93691.44
2022-09-02T15:10:59.993Z,93693.09
2022-09-02T15:16:03.048Z,93686.69
2022-09-02T15:21:05.503Z,93693.38
2022-09-02T15:26:08.508Z,93708.19
2022-09-02T15:31:11.529Z,93697.66
2022-09-02T15:36:13.963Z,93698.44
2022-09-02T15:41:19.004Z,93691.56
2022-09-02T15:46:30.316Z,93688.03
2022-09-02T15:51:32.929Z,93680.97
2022-09-02T15:56:36.508Z,93669.13
2022-09-02T16:01:41.056Z,93683.13
2022-09-02T16:06:45.375Z,93683.72
2022-09-02T16:11:49.783Z,93656.84
2022-09-02T16:16:56.753Z,93674.03
2022-09-02T16:21:59.041Z,93671.78
2022-09-02T16:27:01.049Z,93653.84
2022-09-02T16:37:25.981Z,93683.44
2022-09-02T16:42:28.185Z,93681.88
2022-09-02T16:47:31.883Z,93686.91
2022-09-02T16:52:35.267Z,93679.78
2022-09-02T16:57:37.319Z,93672.94
2022-09-02T17:02:39.798Z,93668.28
2022-09-02T17:07:42.164Z,93671.75
2022-09-02T17:12:44.141Z,93671.31
2022-09-02T17:17:46.097Z,93666.31
2022-09-02T17:22:48.415Z,93675.19
2022-09-02T17:27:50.428Z,93679.38
2022-09-02T17:32:56.306Z,93679.88
2022-09-02T17:37:59.510Z,93677.16
2022-09-02T17:43:01.574Z,93675.47
2022-09-02T17:48:31.856Z,93655.94
2022-09-02T17:53:26.901Z,93667.13
2022-09-02T17:58:34.982Z,93664.97
2022-09-02T18:04:02.740Z,93635.97
2022-09-02T18:09:07.294Z,93653.25
2022-09-02T18:14:38.913Z,93666.22
2022-09-02T18:19:45.967Z,93661.03
2022-09-02T18:25:03.131Z,93645.69
2022-09-02T18:30:21.306Z,93645.31
2022-09-02T18:35:33.995Z,93652.84
2022-09-02T18:40:48.050Z,93653.50
2022-09-02T18:45:51.969Z,93662.28
2022-09-02T18:51:00.972Z,93665.53
2022-09-02T18:56:07.691Z,93666.19
2022-09-02T19:01:17.425Z,93672.31
2022-09-02T19:06:24.789Z,93676.66
2022-09-02T19:11:27.440Z,93685.38
2022-09-02T19:16:33.652Z,93678.69
2022-09-02T19:21:36.960Z,93687.84
2022-09-02T19:26:40.861Z,93683.38
2022-09-02T19:31:44.236Z,93685.78
2022-09-02T19:36:47.623Z,93681.03
2022-09-02T19:41:50.329Z,93675.34
2022-09-02T19:52:14.369Z,93681.09
2022-09-02T20:38:16.951Z,93735.41
2022-09-02T20:44:44.629Z,93734.78
2022-09-02T20:50:20.231Z,93736.91
2022-09-02T20:55:25.556Z,93742.28
2022-09-02T21:00:53.621Z,93745.75
2022-09-02T21:06:03.347Z,93739.09
2022-09-02T21:11:14.710Z,93745.38
2022-09-02T21:16:26.007Z,93733.38
2022-09-02T21:21:34.948Z,93743.09
2022-09-02T21:27:20.717Z,93741.41
2022-09-02T21:32:40.401Z,93743.84
2022-09-02T21:37:44.574Z,93738.53
2022-09-02T21:43:08.811Z,93754.31
2022-09-02T21:48:34.086Z,93744.84
2022-09-02T21:53:51.233Z,93746.22
2022-09-02T21:58:53.174Z,93761.69
2022-09-02T22:04:04.357Z,93743.56
2022-09-02T22:09:11.014Z,93746.56
2022-09-02T22:14:15.763Z,93750.78
2022-09-02T22:19:18.662Z,93765.63
2022-09-02T22:24:28.726Z,93766.75
2022-09-02T22:29:55.351Z,93770.81
2022-09-02T22:35:25.382Z,93764.72
2022-09-02T22:40:33.747Z,93779.28
2022-09-02T22:46:05.036Z,93760.13
2022-09-02T22:51:30.932Z,93691.53
2022-09-02T22:57:19.321Z,93766.91
2022-09-02T23:02:41.448Z,93749.66
2022-09-02T23:07:45.636Z,93755.78
2022-09-02T23:13:14.300Z,93756.13
2022-09-02T23:18:22.091Z,93745.88
2022-09-02T23:23:38.139Z,93775.56
2022-09-02T23:29:10.128Z,93767.22
2022-09-02T23:34:51.732Z,93707.28
2022-09-02T23:40:28.118Z,93773.03
2022-09-02T23:46:07.089Z,93773.84
2022-09-02T23:51:33.551Z,93779.53
2022-09-02T23:56:58.881Z,93783.88
